Time;durP1;ratioP1;P1;durP2;ratioP2;P2;SDS_P1;SDS_P2;PMS_P1;PMS_P2;Temp;Humidity;BMP_temperature;BMP_pressure;BME280_temperature;BME280_humidity;BME280_pressure;Samples;Min_cycle;Max_cycle;Signal;HPM_P1;HPM_P2
2023/05/02 00:01:19;;;;;;;12.30;7.30;;;;;;;9.35;47.15;100100.79;103206;1254;137512;-71
2023/05/02 00:04:07;;;;;;;10.00;6.70;;;;;;;9.32;47.32;100097.73;103335;1254;96442;-70
2023/05/02 00:06:54;;;;;;;13.50;6.90;;;;;;;9.29;47.38;100096.45;103290;1256;137431;-70
2023/05/02 00:09:24;;;;;;;13.50;6.80;;;;;;;9.27;47.44;100097.04;103312;1255;96429;-71
2023/05/02 00:12:11;;;;;;;14.00;6.40;;;;;;;9.24;47.49;100095.02;103885;1252;137329;-71
2023/05/02 00:14:51;;;;;;;15.90;7.00;;;;;;;9.22;47.72;100093.88;103408;1253;107230;-71
2023/05/02 00:17:42;;;;;;;12.40;6.00;;;;;;;9.21;47.84;100088.70;103278;1257;137633;-71
2023/05/02 00:20:19;;;;;;;10.00;6.40;;;;;;;9.20;47.82;100086.13;103830;1256;108453;-71
2023/05/02 00:23:07;;;;;;;11.30;6.50;;;;;;;9.19;47.70;100080.96;103256;1255;137627;-70
2023/05/02 00:25:47;;;;;;;12.10;6.50;;;;;;;9.18;47.87;100078.91;103389;1254;110989;-71
2023/05/02 00:28:17;;;;;;;15.20;6.70;;;;;;;9.18;48.01;100070.60;103425;1256;107687;-69
2023/05/02 00:31:04;;;;;;;;;;;;;;;9.17;48.25;100074.95;103234;1255;137540;-70
2023/05/02 00:33:51;;;;;;;16.90;6.50;;;;;;;9.16;48.24;100072.90;103229;1258;106340;-71
2023/05/02 00:36:27;;;;;;;11.30;6.40;;;;;;;9.14;48.32;100067.04;103827;1253;137486;-71
2023/05/02 00:39:05;;;;;;;12.20;6.70;;;;;;;9.13;48.42;100070.71;104069;1255;110875;-71
2023/05/02 00:41:58;;;;;;;11.10;6.50;;;;;;;9.13;48.54;100063.60;103114;1258;137498;-71
2023/05/02 00:44:28;;;;;;;14.40;6.50;;;;;;;9.13;48.57;100060.14;103405;1256;96425;-71
2023/05/02 00:47:05;;;;;;;13.70;6.30;;;;;;;9.13;48.65;100066.23;103231;1257;137564;-68
2023/05/02 00:49:36;;;;;;;12.60;6.50;;;;;;;9.13;48.78;100059.27;104023;1256;96447;-71
2023/05/02 00:52:03;;;;;;;15.20;6.70;;;;;;;9.12;48.67;100066.93;103327;1257;110540;-71
2023/05/02 00:54:33;;;;;;;11.20;6.70;;;;;;;9.11;48.81;100062.27;103273;1258;137564;-71
2023/05/02 00:57:20;;;;;;;16.10;6.70;;;;;;;9.10;48.88;100064.74;103449;1253;96425;-71
2023/05/02 01:00:11;;;;;;;11.80;6.60;;;;;;;9.09;49.14;100061.29;103268;1256;137285;-71
2023/05/02 01:02:53;;;;;;;12.90;6.60;;;;;;;9.09;48.93;100055.91;103461;1253;97141;-70
2023/05/02 01:05:28;;;;;;;11.20;6.60;;;;;;;9.09;49.03;100051.05;103405;1253;137447;-71
2023/05/02 01:08:09;;;;;;;11.40;6.40;;;;;;;9.09;48.94;100054.00;103330;1253;108348;-71
2023/05/02 01:11:05;;;;;;;12.90;6.50;;;;;;;9.09;49.03;100050.89;103874;1253;96507;-71
2023/05/02 01:13:45;;;;;;;10.40;6.00;;;;;;;9.08;48.90;100047.98;103636;1256;108274;-71
2023/05/02 01:16:19;;;;;;;10.30;5.90;;;;;;;9.08;48.95;100046.91;103298;1257;96540;-71
2023/05/02 01:19:09;;;;;;;11.90;6.40;;;;;;;9.07;49.12;100049.89;104576;1253;137384;-71
2023/05/02 01:21:37;;;;;;;12.90;5.80;;;;;;;9.08;49.07;100051.28;103461;1254;107835;-71
2023/05/02 01:24:12;;;;;;;17.70;6.90;;;;;;;9.06;49.12;100046.63;103107;1256;137653;-71
2023/05/02 01:27:14;;;;;;;9.40;5.90;;;;;;;9.06;49.18;100044.56;103214;1256;109729;-70
2023/05/02 01:30:04;;;;;;;15.20;5.70;;;;;;;9.04;49.12;100040.61;103437;1253;137585;-71
2023/05/02 01:32:37;;;;;;;9.40;6.10;;;;;;;9.03;49.30;100037.53;103529;1253;109703;-71
2023/05/02 01:35:18;;;;;;;11.30;6.00;;;;;;;9.02;49.27;100041.20;103166;1257;137706;-70
2023/05/02 01:38:07;;;;;;;14.60;6.40;;;;;;;9.01;49.33;100033.08;103308;1257;96553;-71
2023/05/02 01:40:57;;;;;;;13.10;5.90;;;;;;;9.00;49.29;100031.05;103374;1253;108536;-71
2023/05/02 01:43:41;;;;;;;11.20;6.30;;;;;;;8.98;49.45;100029.55;103353;1253;96440;-71
2023/05/02 01:46:13;;;;;;;13.00;5.80;;;;;;;8.97;49.38;100028.17;103256;1253;109939;-71
2023/05/02 01:48:57;;;;;;;15.00;6.20;;;;;;;8.96;49.51;100024.04;103226;1253;137648;-71
2023/05/02 01:51:30;;;;;;;12.70;6.00;;;;;;;8.93;49.53;100019.63;104210;1256;96540;-71
2023/05/02 01:54:20;;;;;;;11.60;5.90;;;;;;;8.91;49.63;100013.09;103691;1253;137402;-70
2023/05/02 01:57:09;;;;;;;11.10;5.50;;;;;;;8.90;49.81;100022.12;103321;1258;96521;-71
2023/05/02 01:59:43;;;;;;;13.60;5.90;;;;;;;8.92;49.66;100014.97;104403;1253;138765;-72
2023/05/02 02:02:32;;;;;;;8.60;5.40;;;;;;;8.93;49.53;100009.03;103422;1256;107689;-71
2023/05/02 02:05:22;;;;;;;12.50;6.00;;;;;;;8.93;49.71;100012.33;103306;1256;137564;-71
2023/05/02 02:07:59;;;;;;;12.10;6.20;;;;;;;8.92;49.66;100002.30;103289;1258;108426;-71
2023/05/02 02:10:40;;;;;;;10.50;5.20;;;;;;;8.92;49.61;99999.70;103401;1253;96443;-71
2023/05/02 02:13:26;;;;;;;13.70;6.10;;;;;;;8.91;49.85;100010.13;103259;1256;137275;-71
2023/05/02 02:16:19;;;;;;;11.50;6.40;;;;;;;8.89;49.96;99997.88;103786;1253;109091;-71
2023/05/02 02:18:49;;;;;;;10.90;5.80;;;;;;;8.88;49.89;99997.92;104460;1253;138138;-72
2023/05/02 02:21:28;;;;;;;9.70;5.60;;;;;;;8.86;49.93;99989.50;103731;1254;106785;-71
2023/05/02 02:24:21;;;;;;;13.50;5.80;;;;;;;8.84;49.99;99994.77;103318;1253;137199;-71
2023/05/02 02:27:08;;;;;;;13.30;6.00;;;;;;;8.81;50.13;99989.66;103377;1253;110134;-71
2023/05/02 02:29:40;;;;;;;12.00;5.80;;;;;;;8.78;50.07;99986.93;104323;1256;137523;-72
2023/05/02 02:32:18;;;;;;;10.80;6.40;;;;;;;8.76;50.27;99992.89;103319;1255;96439;-72
2023/05/02 02:35:07;;;;;;;14.40;6.00;;;;;;;8.73;50.24;99988.63;103294;1255;109229;-71
2023/05/02 02:37:52;;;;;;;9.10;5.90;;;;;;;8.70;50.46;99989.78;103883;1257;96486;-71
2023/05/02 02:40:28;;;;;;;11.70;6.10;;;;;;;8.68;50.30;99996.27;103429;1253;110285;-71
2023/05/02 02:43:23;;;;;;;12.10;5.60;;;;;;;8.64;50.65;99992.90;103292;1253;137290;-71
2023/05/02 02:46:19;;;;;;;13.30;6.20;;;;;;;8.60;50.98;99995.08;102653;1253;1002549;-70
2023/05/02 02:49:21;;;;;;;11.00;5.80;;;;;;;8.54;51.20;99998.20;103230;1253;137630;-70
2023/05/02 02:52:17;;;;;;;12.70;6.20;;;;;;;8.48;51.28;99997.15;103443;1253;96508;-70
2023/05/02 02:55:12;;;;;;;10.60;5.70;;;;;;;8.44;51.41;99990.33;103206;1258;137094;-70
2023/05/02 02:57:48;;;;;;;11.80;5.90;;;;;;;8.41;51.36;99989.35;103326;1253;108191;-71
2023/05/02 03:00:21;;;;;;;12.80;5.80;;;;;;;8.38;51.78;99992.04;103347;1253;137403;-70
2023/05/02 03:02:50;;;;;;;11.70;6.60;;;;;;;8.36;51.83;99987.08;103731;1253;106945;-71
2023/05/02 03:05:19;;;;;;;10.60;5.80;;;;;;;8.34;52.02;99990.09;103116;1253;138685;-70
2023/05/02 03:07:46;;;;;;;11.20;5.80;;;;;;;8.31;51.98;99985.64;103436;1257;110921;-71
2023/05/02 03:10:23;;;;;;;14.10;6.70;;;;;;;8.28;52.13;99983.30;103382;1257;108818;-70
2023/05/02 03:13:10;;;;;;;14.10;6.40;;;;;;;8.25;52.32;99983.70;103241;1253;137400;-71
2023/05/02 03:16:26;;;;;;;;;;;;;;;8.22;52.49;99983.45;103358;1253;109108;-70
2023/05/02 03:18:56;;;;;;;9.90;5.90;;;;;;;8.17;52.64;99985.83;104622;1252;123678;-71
2023/05/02 03:21:27;;;;;;;14.00;6.20;;;;;;;8.14;52.56;99983.83;104737;1253;109577;-71
2023/05/02 03:23:55;;;;;;;12.80;5.80;;;;;;;8.12;52.87;99985.95;104385;1256;137517;-71
2023/05/02 03:26:25;;;;;;;13.50;5.90;;;;;;;8.10;52.84;99984.46;104755;1253;94534;-71
2023/05/02 03:28:52;;;;;;;10.80;6.20;;;;;;;8.09;53.09;99984.66;104604;1254;106467;-71
2023/05/02 03:31:29;;;;;;;9.70;5.90;;;;;;;8.09;52.86;99979.48;102706;1253;1002869;-70
2023/05/02 03:34:18;;;;;;;11.20;6.10;;;;;;;8.10;53.16;99991.92;103371;1253;110894;-70
2023/05/02 03:36:49;;;;;;;13.40;6.20;;;;;;;8.10;53.01;99987.08;103293;1256;137965;-70
2023/05/02 03:39:36;;;;;;;16.10;6.60;;;;;;;8.09;53.11;99986.73;103351;1256;96454;-70
2023/05/02 03:42:12;;;;;;;14.50;6.90;;;;;;;8.10;53.14;99989.67;103161;1258;137294;-70
2023/05/02 03:44:58;;;;;;;8.30;5.80;;;;;;;8.10;53.28;99985.69;103387;1253;96361;-70
2023/05/02 03:47:28;;;;;;;13.30;6.30;;;;;;;8.11;53.41;99987.04;103339;1255;137119;-69
2023/05/02 03:49:56;;;;;;;13.60;6.20;;;;;;;8.10;53.43;99986.54;104516;1256;107607;-70
2023/05/02 03:52:43;;;;;;;15.90;6.20;;;;;;;8.11;53.37;99991.38;103289;1258;96477;-70
2023/05/02 03:55:31;;;;;;;13.00;6.30;;;;;;;8.12;53.44;99991.17;103214;1257;137018;-70
2023/05/02 03:58:01;;;;;;;13.10;6.50;;;;;;;8.14;53.78;99991.11;103423;1256;96591;-71
2023/05/02 04:00:39;;;;;;;14.00;6.50;;;;;;;8.16;53.69;99993.48;103256;1254;137265;-71
2023/05/02 04:03:27;;;;;;;12.90;5.60;;;;;;;8.19;53.87;99988.03;103307;1257;109474;-70
2023/05/02 04:06:07;;;;;;;13.80;6.30;;;;;;;8.22;53.91;99994.71;103356;1257;137274;-70
2023/05/02 04:08:56;;;;;;;15.40;6.80;;;;;;;8.24;53.71;99998.10;103196;1257;108885;-70
2023/05/02 04:11:33;;;;;;;13.50;6.70;;;;;;;8.27;53.95;99992.33;103252;1254;138066;-70
2023/05/02 04:14:11;;;;;;;14.20;6.00;;;;;;;8.30;53.88;99992.42;103309;1254;109544;-71
2023/05/02 04:16:49;;;;;;;12.70;6.10;;;;;;;8.34;53.79;99997.34;103297;1255;108174;-70
2023/05/02 04:19:37;;;;;;;18.20;6.60;;;;;;;8.39;53.77;99990.45;103616;1254;96530;-70
2023/05/02 04:22:22;;;;;;;;;;;;;;;8.45;53.72;99991.86;104401;1256;107495;-71
2023/05/02 04:25:02;;;;;;;14.90;6.70;;;;;;;8.51;53.55;99989.97;103278;1253;123654;-71
2023/05/02 04:27:49;;;;;;;12.10;5.80;;;;;;;8.58;53.50;99991.33;103390;1253;110788;-70
2023/05/02 04:30:21;;;;;;;15.00;6.10;;;;;;;8.63;53.21;99991.36;103200;1258;137540;-70
2023/05/02 04:33:11;;;;;;;11.80;5.80;;;;;;;8.72;53.20;99991.09;104491;1254;94364;-72
2023/05/02 04:35:42;;;;;;;13.50;6.50;;;;;;;8.79;53.19;99985.01;104180;1253;137668;-69
2023/05/02 04:38:21;;;;;;;14.60;6.20;;;;;;;8.87;53.01;99982.89;103535;1259;96528;-70
2023/05/02 04:40:59;;;;;;;10.80;6.20;;;;;;;8.93;53.00;99983.89;103363;1253;109661;-70
2023/05/02 04:43:55;;;;;;;12.30;6.90;;;;;;;8.98;53.00;99990.85;103251;1253;108639;-71
2023/05/02 04:46:41;;;;;;;;;;;;;;;9.03;52.92;99985.16;103311;1259;96318;-70
2023/05/02 04:49:29;;;;;;;12.70;5.70;;;;;;;9.08;52.90;99984.50;103147;1259;125011;-71
2023/05/02 04:51:56;;;;;;;11.70;6.60;;;;;;;9.16;52.80;99984.62;103419;1256;96542;-73
2023/05/02 04:54:44;;;;;;;12.80;6.60;;;;;;;9.26;52.76;99984.47;103289;1256;137277;-70
2023/05/02 04:57:31;;;;;;;13.80;6.50;;;;;;;9.42;52.50;99986.73;103270;1256;107206;-73
2023/05/02 05:00:14;;;;;;;14.00;6.60;;;;;;;9.81;52.19;99985.99;103211;1258;137822;-72
2023/05/02 05:02:51;;;;;;;15.80;6.40;;;;;;;10.44;51.27;99985.59;104616;1256;107075;-71
2023/05/02 05:05:22;;;;;;;12.40;5.50;;;;;;;11.06;50.02;99982.39;103505;1257;137852;-69
2023/05/02 05:08:02;;;;;;;12.20;6.00;;;;;;;11.82;49.01;99983.73;103317;1257;110560;-71
2023/05/02 05:10:43;;;;;;;11.40;5.90;;;;;;;13.25;46.84;99971.98;103288;1259;108574;-74
2023/05/02 05:13:14;;;;;;;11.70;6.00;;;;;;;14.41;44.86;99971.47;104589;1256;137638;-74
2023/05/02 05:15:43;;;;;;;11.40;5.30;;;;;;;15.63;43.06;99966.02;103813;1258;106929;-75
2023/05/02 05:18:27;;;;;;;10.30;6.10;;;;;;;16.87;39.87;99958.02;103255;1257;137836;-72
2023/05/02 05:20:55;;;;;;;10.70;5.40;;;;;;;17.94;38.60;99956.73;103241;1258;111212;-72
2023/05/02 05:23:33;;;;;;;8.70;5.50;;;;;;;18.83;37.06;99952.17;103307;1254;138058;-72
2023/05/02 05:26:10;;;;;;;9.90;5.40;;;;;;;19.77;36.62;99944.46;103182;1260;96445;-70
2023/05/02 05:28:40;;;;;;;12.70;5.20;;;;;;;21.01;34.42;99939.05;103619;1260;106783;-71
2023/05/02 05:31:11;;;;;;;14.10;5.70;;;;;;;21.97;32.87;99936.45;103141;1254;137876;-71
2023/05/02 05:33:43;;;;;;;9.90;4.90;;;;;;;22.75;31.27;99930.95;103336;1254;110081;-71
2023/05/02 05:36:14;;;;;;;9.40;5.20;;;;;;;23.36;30.36;99934.02;104499;1256;137571;-62
2023/05/02 05:38:41;;;;;;;12.30;5.50;;;;;;;23.98;30.41;99932.78;104570;1256;94398;-64
2023/05/02 05:41:09;;;;;;;10.40;5.70;;;;;;;24.63;29.26;99924.21;103420;1256;108585;-64
2023/05/02 05:43:40;;;;;;;10.90;5.20;;;;;;;25.14;28.09;99915.67;104358;1254;138504;-64
2023/05/02 05:46:08;;;;;;;8.70;4.90;;;;;;;25.51;27.42;99929.79;103617;1258;110096;-64
2023/05/02 05:48:37;;;;;;;8.80;5.10;;;;;;;24.73;26.80;99925.16;104310;1256;137474;-64
2023/05/02 05:51:06;;;;;;;12.90;5.40;;;;;;;23.71;27.74;99928.41;104516;1256;94730;-64
2023/05/02 05:53:34;;;;;;;12.10;5.80;;;;;;;22.73;28.30;99927.91;104537;1258;137535;-64
2023/05/02 05:56:10;;;;;;;9.40;5.70;;;;;;;21.53;29.39;99926.86;104457;1259;94897;-64
2023/05/02 05:58:39;;;;;;;9.40;5.40;;;;;;;21.77;30.01;99935.16;104648;1258;110206;-65
2023/05/02 06:01:08;;;;;;;8.30;5.10;;;;;;;22.83;29.20;99932.58;103464;1260;138422;-64
2023/05/02 06:03:35;;;;;;;8.10;5.00;;;;;;;23.90;28.64;99929.61;103556;1258;96443;-64
2023/05/02 06:06:02;;;;;;;11.80;5.20;;;;;;;24.90;27.59;99920.30;104331;1256;138378;-73
2023/05/02 06:08:29;;;;;;;8.90;5.10;;;;;;;25.61;26.80;99923.83;104375;1254;95676;-76
2023/05/02 06:10:56;;;;;;;8.60;5.10;;;;;;;25.08;26.78;99925.68;103518;1259;110047;-73
2023/05/02 06:13:24;;;;;;;8.90;5.10;;;;;;;23.96;27.19;99933.56;102775;1260;318078;-75
2023/05/02 06:15:51;;;;;;;8.20;5.20;;;;;;;23.70;27.66;99932.27;103127;1257;96520;-77
2023/05/02 06:18:18;;;;;;;9.90;5.10;;;;;;;23.95;28.01;99931.64;103615;1254;137530;-77
2023/05/02 06:20:45;;;;;;;10.60;5.40;;;;;;;24.05;27.77;99933.25;103211;1259;96463;-77
2023/05/02 06:23:13;;;;;;;10.00;4.90;;;;;;;23.80;28.19;99932.33;103195;1257;109346;-77
2023/05/02 06:25:41;;;;;;;11.00;5.20;;;;;;;24.02;28.25;99938.32;102921;1259;137764;-77
2023/05/02 06:28:08;;;;;;;8.50;5.20;;;;;;;24.81;27.89;99930.77;103212;1254;96314;-76
2023/05/02 06:30:35;;;;;;;7.90;4.40;;;;;;;24.92;27.40;99926.85;102990;1259;137510;-74
2023/05/02 06:33:05;;;;;;;8.50;4.40;;;;;;;24.42;27.87;99935.28;103277;1258;96429;-75
2023/05/02 06:35:32;;;;;;;7.10;4.40;;;;;;;24.58;27.66;99933.20;103230;1259;137476;-75
2023/05/02 06:38:00;;;;;;;9.90;4.80;;;;;;;25.27;27.00;99935.20;103318;1256;108335;-76
2023/05/02 06:40:26;;;;;;;6.90;4.20;;;;;;;25.81;26.48;99933.36;103263;1257;96333;-76
2023/05/02 06:42:53;;;;;;;9.10;4.00;;;;;;;26.47;26.39;99926.47;103186;1257;138225;-72
2023/05/02 06:45:21;;;;;;;8.00;4.30;;;;;;;27.24;25.76;99933.20;103265;1267;96446;-74
2023/05/02 06:47:48;;;;;;;8.70;4.30;;;;;;;27.53;25.01;99924.84;103180;1257;137599;-75
2023/05/02 06:50:15;;;;;;;9.70;4.50;;;;;;;27.75;24.64;99931.98;103278;1258;109013;-75
2023/05/02 06:52:43;;;;;;;7.20;4.40;;;;;;;27.91;24.53;99933.20;103329;1257;96528;-78
2023/05/02 06:55:10;;;;;;;8.40;4.60;;;;;;;28.13;24.60;99934.88;103092;1254;137771;-78
2023/05/02 06:57:38;;;;;;;6.40;4.10;;;;;;;28.25;24.08;99935.59;103924;1259;95078;-77
2023/05/02 07:00:06;;;;;;;6.50;4.20;;;;;;;28.33;24.39;99938.84;103163;1258;137391;-77
2023/05/02 07:02:33;;;;;;;6.90;4.20;;;;;;;28.40;24.24;99937.66;103272;1254;107083;-78
2023/05/02 07:05:00;;;;;;;9.50;4.10;;;;;;;28.68;24.40;99930.58;103374;1257;96457;-77
2023/05/02 07:07:27;;;;;;;5.80;3.70;;;;;;;28.88;24.00;99934.68;103172;1254;137440;-77
2023/05/02 07:09:54;;;;;;;7.20;3.30;;;;;;;29.27;23.91;99930.05;103297;1257;96539;-80
2023/05/02 07:12:21;;;;;;;6.40;2.70;;;;;;;29.63;23.56;99933.77;103241;1253;137434;-76
2023/05/02 07:14:49;;;;;;;6.40;3.10;;;;;;;29.61;22.64;99936.69;103313;1254;108056;-74
2023/05/02 07:17:15;;;;;;;5.00;3.10;;;;;;;29.82;22.77;99925.90;103379;1254;96446;-75
2023/05/02 07:19:43;;;;;;;6.00;3.40;;;;;;;29.89;22.47;99930.11;103283;1257;108305;-75
2023/05/02 07:22:11;;;;;;;7.70;2.90;;;;;;;30.17;22.67;99923.38;103314;1257;97206;-76
2023/05/02 07:24:41;;;;;;;5.30;2.90;;;;;;;30.79;21.82;99927.69;104612;1253;137259;-78
2023/05/02 07:27:09;;;;;;;4.10;2.50;;;;;;;31.00;21.64;99927.00;103366;1257;107830;-78
2023/05/02 07:29:37;;;;;;;4.30;2.80;;;;;;;31.09;21.02;99928.86;103170;1257;137908;-76
2023/05/02 07:32:04;;;;;;;5.30;2.50;;;;;;;31.28;21.20;99926.06;103324;1257;108661;-75
2023/05/02 07:34:31;;;;;;;3.20;2.30;;;;;;;31.27;20.75;99924.05;103049;1259;96567;-77
2023/05/02 07:36:59;;;;;;;6.90;2.20;;;;;;;31.00;20.96;99925.46;103134;1254;137359;-75
2023/05/02 07:39:25;;;;;;;5.10;2.30;;;;;;;31.18;21.12;99928.71;104607;1254;107859;-75
2023/05/02 07:41:54;;;;;;;6.50;2.70;;;;;;;31.32;20.81;99924.48;103288;1257;137813;-77
2023/05/02 07:44:21;;;;;;;6.80;2.30;;;;;;;31.64;20.54;99931.86;103179;1258;106446;-77
2023/05/02 07:46:48;;;;;;;6.20;2.60;;;;;;;31.53;20.68;99927.64;103290;1255;96446;-77
2023/05/02 07:49:16;;;;;;;7.70;2.30;;;;;;;31.70;20.85;99932.34;103059;1255;137773;-78
2023/05/02 07:51:44;;;;;;;6.50;2.50;;;;;;;32.00;20.55;99927.22;103070;1256;108323;-77
2023/05/02 07:54:19;;;;;;;7.20;2.50;;;;;;;32.09;20.38;99935.50;103083;1254;137508;-75
2023/05/02 07:56:47;;;;;;;4.60;2.80;;;;;;;32.17;20.05;99938.44;103346;1257;108221;-69
2023/05/02 07:59:14;;;;;;;4.20;2.40;;;;;;;32.00;19.76;99943.15;103261;1254;96566;-69
2023/05/02 08:01:43;;;;;;;6.10;2.70;;;;;;;31.83;19.99;99944.63;103135;1257;137078;-71
2023/05/02 08:04:10;;;;;;;7.80;2.70;;;;;;;31.75;20.00;99942.92;104079;1258;109269;-73
2023/05/02 08:06:37;;;;;;;4.60;3.00;;;;;;;31.61;20.03;99945.10;103137;1257;137615;-69
2023/05/02 08:09:05;;;;;;;4.00;2.90;;;;;;;31.69;20.35;99945.52;103260;1254;108558;-70
2023/05/02 08:11:32;;;;;;;7.30;3.00;;;;;;;32.14;20.68;99947.20;103142;1257;137745;-69
2023/05/02 08:13:59;;;;;;;8.10;3.00;;;;;;;32.30;20.27;99952.45;103290;1258;109522;-68
2023/05/02 08:16:26;;;;;;;5.30;3.10;;;;;;;32.13;20.15;99957.33;103241;1254;108502;-70
2023/05/02 08:18:53;;;;;;;7.00;3.00;;;;;;;31.98;20.34;99959.08;103209;1257;137714;-69
2023/05/02 08:21:21;;;;;;;9.40;3.10;;;;;;;32.02;20.20;99960.43;103154;1254;107994;-68
2023/05/02 08:23:48;;;;;;;5.80;3.10;;;;;;;31.91;20.07;99964.29;103161;1254;137651;-71
2023/05/02 08:26:17;;;;;;;5.90;3.00;;;;;;;31.65;20.23;99957.67;103801;1254;110166;-71
2023/05/02 08:28:44;;;;;;;5.90;3.20;;;;;;;31.57;20.62;99954.88;103340;1254;107530;-71
2023/05/02 08:31:11;;;;;;;5.80;3.40;;;;;;;31.53;20.84;99957.20;103218;1254;137523;-71
2023/05/02 08:33:39;;;;;;;5.20;3.30;;;;;;;31.41;21.00;99963.42;104592;1257;108481;-73
2023/05/02 08:36:14;;;;;;;5.70;3.40;;;;;;;31.36;21.11;99966.15;103752;1254;137812;-72
2023/05/02 08:38:41;;;;;;;5.40;3.50;;;;;;;31.38;20.99;99972.55;103519;1256;109244;-71
2023/05/02 08:41:13;;;;;;;4.60;3.30;;;;;;;30.94;21.16;99967.36;103262;1254;107402;-67
2023/05/02 08:43:42;;;;;;;7.80;3.30;;;;;;;30.76;21.40;99977.17;103115;1258;137300;-75
2023/05/02 08:46:10;;;;;;;5.10;3.40;;;;;;;30.59;21.85;99977.72;103077;1257;108070;-74
2023/05/02 08:48:40;;;;;;;6.40;3.80;;;;;;;30.55;21.88;99976.17;103193;1254;137622;-70
2023/05/02 08:51:10;;;;;;;8.30;3.60;;;;;;;30.46;22.13;99976.14;103298;1254;109703;-70
2023/05/02 08:53:38;;;;;;;5.90;3.70;;;;;;;30.39;21.98;99980.88;104278;1252;137942;-73
2023/05/02 08:56:06;;;;;;;6.50;3.90;;;;;;;30.19;22.11;99985.29;103319;1258;96430;-75
2023/05/02 08:58:33;;;;;;;6.00;3.90;;;;;;;29.88;22.34;99982.05;103451;1254;108555;-74
2023/05/02 09:01:03;;;;;;;5.60;3.80;;;;;;;29.64;22.81;99982.58;103107;1257;137746;-74
2023/05/02 09:03:32;;;;;;;8.00;3.80;;;;;;;29.40;22.96;99974.42;103376;1257;110508;-73
2023/05/02 09:06:06;;;;;;;7.00;4.30;;;;;;;29.52;23.33;99976.04;104048;1253;138088;-65
2023/05/02 09:08:34;;;;;;;6.90;4.10;;;;;;;29.36;23.09;99979.66;104386;1254;95449;-66
2023/05/02 09:11:01;;;;;;;6.20;3.90;;;;;;;28.98;23.53;99982.27;103212;1255;107211;-67
2023/05/02 09:13:34;;;;;;;5.60;4.20;;;;;;;28.89;23.82;99990.81;103142;1257;137685;-65
2023/05/02 09:16:02;;;;;;;8.40;4.40;;;;;;;28.87;23.85;99990.11;103801;1257;109843;-65
2023/05/02 09:18:34;;;;;;;8.20;4.60;;;;;;;28.62;23.90;99997.27;103452;1254;137575;-63
2023/05/02 09:21:05;;;;;;;10.30;4.70;;;;;;;28.00;24.30;99995.71;104597;1254;94697;-64
2023/05/02 09:23:41;;;;;;;9.80;4.60;;;;;;;27.52;24.86;99989.44;103339;1257;138294;-68
2023/05/02 09:26:18;;;;;;;8.30;4.20;;;;;;;27.15;25.42;99993.95;103688;1254;96501;-63
2023/05/02 09:28:47;;;;;;;5.60;4.00;;;;;;;26.51;25.86;99999.71;103635;1257;109537;-65
2023/05/02 09:31:16;;;;;;;9.30;4.50;;;;;;;26.00;26.32;100004.86;103054;1254;137518;-65
2023/05/02 09:34:10;;;;;;;8.20;4.90;;;;;;;25.53;26.87;100005.84;103164;1254;96511;-65
2023/05/02 09:36:41;;;;;;;10.80;4.60;;;;;;;25.00;27.75;100015.02;104120;1257;137644;-65
2023/05/02 09:39:13;;;;;;;8.70;5.00;;;;;;;24.45;28.40;100016.55;103194;1254;96307;-63
2023/05/02 09:41:43;;;;;;;8.40;4.80;;;;;;;24.02;28.99;100022.45;103880;1255;137828;-65
2023/05/02 09:44:11;;;;;;;9.30;5.20;;;;;;;23.70;29.56;100026.61;103156;1254;108408;-65
2023/05/02 09:46:42;;;;;;;9.20;5.20;;;;;;;23.62;29.97;100023.16;104553;1254;94427;-65
2023/05/02 09:49:10;;;;;;;10.40;5.00;;;;;;;23.57;30.18;100027.83;103769;1254;137664;-66
2023/05/02 09:51:40;;;;;;;7.60;4.90;;;;;;;23.55;30.58;100028.51;103353;1257;96336;-65
2023/05/02 09:54:07;;;;;;;8.80;5.90;;;;;;;23.48;30.67;100027.10;103104;1255;137463;-65
2023/05/02 09:56:55;;;;;;;8.80;5.00;;;;;;;23.35;30.93;100030.84;103268;1254;109737;-64
2023/05/02 09:59:26;;;;;;;8.50;5.30;;;;;;;23.22;31.35;100038.22;103145;1252;137813;-65
2023/05/02 10:01:59;;;;;;;11.00;5.80;;;;;;;23.19;31.77;100041.29;103136;1257;108747;-65
2023/05/02 10:04:28;;;;;;;9.70;5.60;;;;;;;23.22;31.71;100039.27;103257;1257;97062;-64
2023/05/02 10:06:56;;;;;;;11.30;5.80;;;;;;;23.26;31.80;100042.69;103426;1257;137427;-65
2023/05/02 10:09:23;;;;;;;9.70;4.90;;;;;;;23.31;31.97;100045.95;103071;1254;108039;-65
2023/05/02 10:11:53;;;;;;;9.50;5.90;;;;;;;23.25;32.13;100046.40;103137;1257;137819;-63
2023/05/02 10:14:23;;;;;;;12.60;5.30;;;;;;;23.19;32.50;100047.69;103250;1255;108225;-64
2023/05/02 10:16:59;;;;;;;10.10;5.80;;;;;;;23.34;32.87;100058.80;103280;1254;97361;-65
2023/05/02 10:19:30;;;;;;;8.10;5.30;;;;;;;23.61;32.90;100057.14;103072;1254;137937;-65
2023/05/02 10:21:58;;;;;;;12.60;5.90;;;;;;;24.03;32.73;100060.70;103239;1254;108358;-64
2023/05/02 10:24:26;;;;;;;9.80;6.30;;;;;;;24.19;32.53;100056.60;103226;1254;137878;-63
2023/05/02 10:26:54;;;;;;;8.90;6.20;;;;;;;24.19;32.53;100064.23;104680;1252;108922;-65
2023/05/02 10:29:22;;;;;;;11.80;7.50;;;;;;;23.99;32.61;100060.79;104647;1255;94696;-64
2023/05/02 10:31:51;;;;;;;12.70;8.30;;;;;;;23.78;33.03;100070.98;103405;1253;109884;-64
2023/05/02 10:34:20;;;;;;;13.10;8.60;;;;;;;23.44;33.21;100073.89;103262;1256;107377;-64
2023/05/02 10:36:47;;;;;;;20.70;11.00;;;;;;;23.08;33.61;100084.67;103197;1253;137876;-63
2023/05/02 10:39:15;;;;;;;11.70;7.70;;;;;;;22.72;34.09;100088.60;103341;1254;107867;-63
2023/05/02 10:41:43;;;;;;;17.20;7.50;;;;;;;22.45;34.52;100086.85;103095;1254;138469;-63
2023/05/02 10:44:10;;;;;;;15.00;7.00;;;;;;;22.08;35.12;100089.23;103162;1257;109989;-64
2023/05/02 10:46:40;;;;;;;21.10;12.90;;;;;;;21.71;35.74;100094.52;103121;1257;107318;-64
2023/05/02 10:49:08;;;;;;;12.90;8.20;;;;;;;21.27;36.10;100103.01;104380;1254;139018;-65
2023/05/02 10:51:36;;;;;;;11.60;7.70;;;;;;;20.84;36.63;100116.79;103373;1254;107391;-65
2023/05/02 10:54:23;;;;;;;21.10;8.10;;;;;;;20.42;37.76;100119.94;103056;1258;137996;-64
2023/05/02 10:57:06;;;;;;;13.00;7.60;;;;;;;19.94;38.39;100116.59;103668;1254;110081;-64
2023/05/02 10:59:35;;;;;;;13.90;7.20;;;;;;;19.54;39.39;100130.63;103322;1254;138116;-64
2023/05/02 11:02:03;;;;;;;11.10;7.30;;;;;;;19.23;39.66;100141.61;103220;1254;96357;-73
2023/05/02 11:05:02;;;;;;;12.50;7.60;;;;;;;18.99;40.27;100150.52;103501;1254;108250;-71
2023/05/02 11:07:31;;;;;;;11.50;7.80;;;;;;;18.68;41.41;100152.27;103169;1253;137810;-74
2023/05/02 11:10:28;;;;;;;13.40;7.60;;;;;;;18.38;42.70;100155.61;104000;1253;109869;-71
2023/05/02 11:12:59;;;;;;;10.70;8.70;;;;;;;18.04;43.77;100166.31;103301;1254;137806;-73
2023/05/02 11:16:00;;;;;;;14.30;9.20;;;;;;;17.81;44.54;100178.02;103580;1254;96532;-69
2023/05/02 11:18:27;;;;;;;12.10;9.20;;;;;;;17.59;45.87;100193.94;103182;1254;141131;-69
2023/05/02 11:21:15;;;;;;;15.40;9.00;;;;;;;17.41;46.68;100198.36;103346;1253;96422;-70
2023/05/02 11:23:43;;;;;;;16.40;10.00;;;;;;;17.21;47.26;100204.53;103618;1254;137766;-70
2023/05/02 11:26:24;;;;;;;13.70;9.80;;;;;;;17.02;47.72;100205.47;103222;1254;109228;-70
2023/05/02 11:28:52;;;;;;;21.50;14.90;;;;;;;16.87;48.70;100210.20;103269;1254;96543;-69
2023/05/02 11:32:03;;;;;;;25.10;16.20;;;;;;;16.79;49.23;100215.47;103085;1254;137878;-70
2023/05/02 11:34:40;;;;;;;22.80;15.90;;;;;;;16.70;50.09;100219.33;103228;1254;96463;-74
2023/05/02 11:37:14;;;;;;;23.70;16.50;;;;;;;16.68;50.37;100217.14;103120;1254;139094;-71
2023/05/02 11:39:42;;;;;;;24.40;14.20;;;;;;;16.75;50.42;100222.34;103834;1254;107646;-72
2023/05/02 11:42:08;;;;;;;16.00;11.30;;;;;;;16.82;50.29;100215.79;102976;1254;138948;-72
2023/05/02 11:44:52;;;;;;;14.50;10.80;;;;;;;16.87;50.54;100222.70;103064;1254;108868;-71
2023/05/02 11:47:20;;;;;;;14.40;10.30;;;;;;;17.03;50.51;100231.27;103088;1254;96967;-71
2023/05/02 11:49:47;;;;;;;19.10;12.20;;;;;;;17.22;50.30;100232.02;103398;1257;111924;-73